sensor_id;sensor_type;location;lat;lon;timestamp;pressure;altitude;pressure_sealevel;temperature;humidity
25080;BME280;13071;48.868;9.996;2023-04-16T00:00:02;96326.25;;;6.77;100.00
25080;BME280;13071;48.868;9.996;2023-04-16T00:02:29;96334.47;;;6.81;100.00
25080;BME280;13071;48.868;9.996;2023-04-16T00:04:56;96331.47;;;6.82;100.00
25080;BME280;13071;48.868;9.996;2023-04-16T00:07:22;96330.03;;;6.76;100.00
25080;BME280;13071;48.868;9.996;2023-04-16T00:09:49;96327.69;;;6.83;100.00
25080;BME280;13071;48.868;9.996;2023-04-16T00:12:17;96330.38;;;6.75;100.00
25080;BME280;13071;48.868;9.996;2023-04-16T00:14:43;96336.69;;;6.79;100.00
25080;BME280;13071;48.868;9.996;2023-04-16T00:17:10;96327.84;;;6.78;100.00
25080;BME280;13071;48.868;9.996;2023-04-16T00:19:37;96326.59;;;6.93;100.00
25080;BME280;13071;48.868;9.996;2023-04-16T00:22:03;96335.31;;;6.90;100.00
25080;BME280;13071;48.868;9.996;2023-04-16T00:24:30;96333.88;;;6.92;100.00
25080;BME280;13071;48.868;9.996;2023-04-16T00:26:57;96325.50;;;6.85;100.00
25080;BME280;13071;48.868;9.996;2023-04-16T00:29:24;96329.59;;;6.83;100.00
25080;BME280;13071;48.868;9.996;2023-04-16T00:31:53;96327.25;;;6.90;100.00
25080;BME280;13071;48.868;9.996;2023-04-16T00:34:19;96326.75;;;6.88;100.00
25080;BME280;13071;48.868;9.996;2023-04-16T00:36:46;96326.75;;;6.79;100.00
25080;BME280;13071;48.868;9.996;2023-04-16T00:39:12;96323.56;;;6.77;100.00
25080;BME280;13071;48.868;9.996;2023-04-16T00:41:39;96320.41;;;6.75;100.00
25080;BME280;13071;48.868;9.996;2023-04-16T00:44:06;96330.41;;;6.92;100.00
25080;BME280;13071;48.868;9.996;2023-04-16T00:46:34;96330.25;;;6.88;100.00
25080;BME280;13071;48.868;9.996;2023-04-16T00:49:02;96325.19;;;6.96;100.00
25080;BME280;13071;48.868;9.996;2023-04-16T00:51:29;96332.28;;;6.91;100.00
25080;BME280;13071;48.868;9.996;2023-04-16T00:53:57;96327.25;;;6.90;100.00
25080;BME280;13071;48.868;9.996;2023-04-16T00:56:23;96324.56;;;6.99;100.00
25080;BME280;13071;48.868;9.996;2023-04-16T00:58:51;96318.38;;;6.89;100.00
25080;BME280;13071;48.868;9.996;2023-04-16T01:01:17;96317.91;;;6.96;100.00
25080;BME280;13071;48.868;9.996;2023-04-16T01:03:46;96329.16;;;7.07;100.00
25080;BME280;13071;48.868;9.996;2023-04-16T01:06:14;96324.56;;;7.07;100.00
25080;BME280;13071;48.868;9.996;2023-04-16T01:08:42;96326.00;;;7.05;100.00
25080;BME280;13071;48.868;9.996;2023-04-16T01:11:08;96315.53;;;6.94;100.00
25080;BME280;13071;48.868;9.996;2023-04-16T01:13:35;96327.09;;;7.04;100.00
25080;BME280;13071;48.868;9.996;2023-04-16T01:16:04;96329.75;;;6.86;100.00
25080;BME280;13071;48.868;9.996;2023-04-16T01:18:31;96327.56;;;6.97;100.00
25080;BME280;13071;48.868;9.996;2023-04-16T01:20:59;96326.44;;;6.89;100.00
25080;BME280;13071;48.868;9.996;2023-04-16T01:23:25;96327.56;;;7.06;100.00
25080;BME280;13071;48.868;9.996;2023-04-16T01:25:52;96328.66;;;6.96;100.00
25080;BME280;13071;48.868;9.996;2023-04-16T01:28:18;96324.88;;;7.06;100.00
25080;BME280;13071;48.868;9.996;2023-04-16T01:30:45;96325.66;;;6.98;100.00
25080;BME280;13071;48.868;9.996;2023-04-16T01:33:12;96331.81;;;6.89;100.00
25080;BME280;13071;48.868;9.996;2023-04-16T01:35:40;96332.63;;;6.99;100.00
25080;BME280;13071;48.868;9.996;2023-04-16T01:38:08;96330.25;;;6.97;100.00
25080;BME280;13071;48.868;9.996;2023-04-16T01:40:36;96339.75;;;6.94;100.00
25080;BME280;13071;48.868;9.996;2023-04-16T01:43:03;96326.28;;;6.94;100.00
25080;BME280;13071;48.868;9.996;2023-04-16T01:45:30;96327.56;;;6.97;100.00
25080;BME280;13071;48.868;9.996;2023-04-16T01:47:57;96341.34;;;6.96;100.00
25080;BME280;13071;48.868;9.996;2023-04-16T01:50:24;96333.59;;;7.11;100.00
25080;BME280;13071;48.868;9.996;2023-04-16T01:52:50;96330.09;;;7.02;100.00
25080;BME280;13071;48.868;9.996;2023-04-16T01:55:18;96336.13;;;6.99;100.00
25080;BME280;13071;48.868;9.996;2023-04-16T01:57:45;96332.03;;;7.19;100.00
25080;BME280;13071;48.868;9.996;2023-04-16T02:00:11;96333.13;;;7.18;100.00
25080;BME280;13071;48.868;9.996;2023-04-16T02:02:38;96336.63;;;7.10;100.00
25080;BME280;13071;48.868;9.996;2023-04-16T02:05:05;96327.41;;;7.11;100.00
25080;BME280;13071;48.868;9.996;2023-04-16T02:07:32;96323.47;;;7.08;100.00
25080;BME280;13071;48.868;9.996;2023-04-16T02:09:58;96332.19;;;7.14;100.00
25080;BME280;13071;48.868;9.996;2023-04-16T02:12:26;96333.78;;;7.23;100.00
25080;BME280;13071;48.868;9.996;2023-04-16T02:14:53;96330.09;;;7.11;100.00
25080;BME280;13071;48.868;9.996;2023-04-16T02:17:20;96330.78;;;7.25;100.00
25080;BME280;13071;48.868;9.996;2023-04-16T02:19:46;96332.03;;;7.19;100.00
25080;BME280;13071;48.868;9.996;2023-04-16T02:22:13;96327.75;;;7.09;100.00
25080;BME280;13071;48.868;9.996;2023-04-16T02:24:40;96330.94;;;7.20;100.00
25080;BME280;13071;48.868;9.996;2023-04-16T02:27:06;96335.19;;;7.21;100.00
25080;BME280;13071;48.868;9.996;2023-04-16T02:29:34;96338.06;;;7.24;100.00
25080;BME280;13071;48.868;9.996;2023-04-16T02:32:01;96329.97;;;7.16;100.00
25080;BME280;13071;48.868;9.996;2023-04-16T02:34:27;96339.16;;;7.15;100.00
25080;BME280;13071;48.868;9.996;2023-04-16T02:36:54;96335.38;;;7.24;100.00
25080;BME280;13071;48.868;9.996;2023-04-16T02:39:22;96331.09;;;7.23;100.00
25080;BME280;13071;48.868;9.996;2023-04-16T02:41:49;96328.41;;;7.15;100.00
25080;BME280;13071;48.868;9.996;2023-04-16T02:44:15;96328.53;;;7.18;100.00
25080;BME280;13071;48.868;9.996;2023-04-16T02:46:43;96329.63;;;7.00;100.00
25080;BME280;13071;48.868;9.996;2023-04-16T02:49:10;96333.28;;;7.13;100.00
25080;BME280;13071;48.868;9.996;2023-04-16T02:51:36;96333.44;;;6.99;100.00
25080;BME280;13071;48.868;9.996;2023-04-16T02:54:03;96337.88;;;7.12;100.00
25080;BME280;13071;48.868;9.996;2023-04-16T02:56:30;96337.06;;;7.03;100.00
25080;BME280;13071;48.868;9.996;2023-04-16T02:58:56;96344.19;;;6.99;100.00
25080;BME280;13071;48.868;9.996;2023-04-16T03:01:23;96342.75;;;6.93;100.00
25080;BME280;13071;48.868;9.996;2023-04-16T03:03:51;96339.28;;;7.01;100.00
25080;BME280;13071;48.868;9.996;2023-04-16T03:06:17;96343.38;;;6.90;100.00
25080;BME280;13071;48.868;9.996;2023-04-16T03:08:44;96344.50;;;6.98;100.00
25080;BME280;13071;48.868;9.996;2023-04-16T03:11:10;96338.78;;;6.90;100.00
25080;BME280;13071;48.868;9.996;2023-04-16T03:13:37;96337.97;;;6.81;100.00
25080;BME280;13071;48.868;9.996;2023-04-16T03:16:04;96334.03;;;6.96;100.00
25080;BME280;13071;48.868;9.996;2023-04-16T03:18:31;96342.53;;;6.81;100.00
25080;BME280;13071;48.868;9.996;2023-04-16T03:20:59;96351.25;;;6.86;100.00
25080;BME280;13071;48.868;9.996;2023-04-16T03:23:25;96342.28;;;7.00;100.00
25080;BME280;13071;48.868;9.996;2023-04-16T03:25:52;96341.97;;;7.01;100.00
25080;BME280;13071;48.868;9.996;2023-04-16T03:28:19;96340.41;;;7.00;100.00
25080;BME280;13071;48.868;9.996;2023-04-16T03:30:49;96351.53;;;6.76;100.00
25080;BME280;13071;48.868;9.996;2023-04-16T03:33:16;96354.47;;;6.97;100.00
25080;BME280;13071;48.868;9.996;2023-04-16T03:35:43;96348.75;;;6.90;100.00
25080;BME280;13071;48.868;9.996;2023-04-16T03:38:11;96347.06;;;7.11;100.00
25080;BME280;13071;48.868;9.996;2023-04-16T03:40:38;96354.59;;;6.92;100.00
25080;BME280;13071;48.868;9.996;2023-04-16T03:43:05;96359.53;;;6.90;100.00
25080;BME280;13071;48.868;9.996;2023-04-16T03:45:31;96362.38;;;6.93;100.00
25080;BME280;13071;48.868;9.996;2023-04-16T03:47:58;96363.78;;;6.91;100.00
25080;BME280;13071;48.868;9.996;2023-04-16T03:50:24;96361.59;;;7.02;100.00
25080;BME280;13071;48.868;9.996;2023-04-16T03:52:51;96367.78;;;7.02;100.00
25080;BME280;13071;48.868;9.996;2023-04-16T03:55:19;96359.72;;;7.11;100.00
25080;BME280;13071;48.868;9.996;2023-04-16T03:57:45;96355.47;;;7.10;100.00
25080;BME280;13071;48.868;9.996;2023-04-16T04:00:12;96363.69;;;7.30;100.00
25080;BME280;13071;48.868;9.996;2023-04-16T04:02:39;96357.16;;;7.06;100.00
25080;BME280;13071;48.868;9.996;2023-04-16T04:05:06;96362.22;;;6.99;100.00
25080;BME280;13071;48.868;9.996;2023-04-16T04:07:33;96374.72;;;6.94;100.00
25080;BME280;13071;48.868;9.996;2023-04-16T04:10:00;96368.06;;;6.92;100.00
25080;BME280;13071;48.868;9.996;2023-04-16T04:12:28;96368.47;;;6.77;100.00
25080;BME280;13071;48.868;9.996;2023-04-16T04:14:54;96376.09;;;6.75;100.00
25080;BME280;13071;48.868;9.996;2023-04-16T04:17:21;96380.66;;;6.74;100.00
25080;BME280;13071;48.868;9.996;2023-04-16T04:19:47;96378.28;;;6.73;100.00
25080;BME280;13071;48.868;9.996;2023-04-16T04:22:14;96369.88;;;6.66;100.00
25080;BME280;13071;48.868;9.996;2023-04-16T04:24:40;96374.94;;;6.67;100.00
25080;BME280;13071;48.868;9.996;2023-04-16T04:27:07;96378.94;;;6.78;100.00
25080;BME280;13071;48.868;9.996;2023-04-16T04:29:35;96381.75;;;6.65;100.00
25080;BME280;13071;48.868;9.996;2023-04-16T04:32:01;96380.66;;;6.74;100.00
25080;BME280;13071;48.868;9.996;2023-04-16T04:34:28;96380.97;;;6.73;100.00
25080;BME280;13071;48.868;9.996;2023-04-16T04:36:55;96393.19;;;6.79;100.00
25080;BME280;13071;48.868;9.996;2023-04-16T04:39:21;96389.34;;;6.71;100.00
25080;BME280;13071;48.868;9.996;2023-04-16T04:41:48;96395.88;;;6.79;100.00
25080;BME280;13071;48.868;9.996;2023-04-16T04:44:14;96384.00;;;6.80;100.00
25080;BME280;13071;48.868;9.996;2023-04-16T04:46:42;96392.69;;;6.77;100.00
25080;BME280;13071;48.868;9.996;2023-04-16T04:49:09;96396.84;;;6.83;100.00
25080;BME280;13071;48.868;9.996;2023-04-16T04:51:36;96395.38;;;6.77;100.00
25080;BME280;13071;48.868;9.996;2023-04-16T04:54:02;96393.94;;;6.71;100.00
25080;BME280;13071;48.868;9.996;2023-04-16T04:56:29;96397.13;;;6.81;100.00
25080;BME280;13071;48.868;9.996;2023-04-16T04:58:55;96400.28;;;6.75;100.00
25080;BME280;13071;48.868;9.996;2023-04-16T05:01:22;96394.13;;;6.74;100.00
25080;BME280;13071;48.868;9.996;2023-04-16T05:03:50;96400.75;;;6.77;100.00
25080;BME280;13071;48.868;9.996;2023-04-16T05:06:17;96405.84;;;6.78;100.00
25080;BME280;13071;48.868;9.996;2023-04-16T05:08:43;96409.63;;;6.77;100.00
25080;BME280;13071;48.868;9.996;2023-04-16T05:11:10;96413.19;;;6.95;100.00
25080;BME280;13071;48.868;9.996;2023-04-16T05:13:36;96418.06;;;6.93;100.00
25080;BME280;13071;48.868;9.996;2023-04-16T05:16:03;96416.47;;;6.92;100.00
25080;BME280;13071;48.868;9.996;2023-04-16T05:18:30;96422.22;;;6.99;100.00
25080;BME280;13071;48.868;9.996;2023-04-16T05:20:58;96421.72;;;6.97;100.00
25080;BME280;13071;48.868;9.996;2023-04-16T05:23:25;96419.19;;;7.01;100.00
25080;BME280;13071;48.868;9.996;2023-04-16T05:25:52;96422.38;;;7.03;100.00
25080;BME280;13071;48.868;9.996;2023-04-16T05:28:18;96425.59;;;7.13;100.00
25080;BME280;13071;48.868;9.996;2023-04-16T05:30:45;96429.94;;;6.92;100.00
25080;BME280;13071;48.868;9.996;2023-04-16T05:33:11;96428.81;;;6.84;100.00
25080;BME280;13071;48.868;9.996;2023-04-16T05:35:38;96424.97;;;6.77;100.00
25080;BME280;13071;48.868;9.996;2023-04-16T05:38:06;96435.25;;;6.75;100.00
25080;BME280;13071;48.868;9.996;2023-04-16T05:40:32;96434.50;;;6.83;100.00
25080;BME280;13071;48.868;9.996;2023-04-16T05:42:59;96444.31;;;6.87;100.00
25080;BME280;13071;48.868;9.996;2023-04-16T05:45:26;96442.00;;;7.03;100.00
25080;BME280;13071;48.868;9.996;2023-04-16T05:47:52;96439.31;;;7.03;100.00
25080;BME280;13071;48.868;9.996;2023-04-16T05:50:19;96445.28;;;6.91;100.00
25080;BME280;13071;48.868;9.996;2023-04-16T05:52:45;96450.19;;;6.89;100.00
25080;BME280;13071;48.868;9.996;2023-04-16T05:55:13;96446.56;;;6.94;100.00
25080;BME280;13071;48.868;9.996;2023-04-16T05:57:40;96452.75;;;6.94;100.00
25080;BME280;13071;48.868;9.996;2023-04-16T06:00:07;96449.41;;;6.98;100.00
25080;BME280;13071;48.868;9.996;2023-04-16T06:02:34;96463.69;;;6.98;100.00
25080;BME280;13071;48.868;9.996;2023-04-16T06:05:01;96454.78;;;6.89;100.00
25080;BME280;13071;48.868;9.996;2023-04-16T06:07:27;96454.63;;;6.85;100.00
25080;BME280;13071;48.868;9.996;2023-04-16T06:09:54;96458.25;;;6.89;100.00
25080;BME280;13071;48.868;9.996;2023-04-16T06:12:22;96453.34;;;6.91;100.00
25080;BME280;13071;48.868;9.996;2023-04-16T06:14:48;96463.03;;;7.01;100.00
25080;BME280;13071;48.868;9.996;2023-04-16T06:17:15;96465.53;;;6.89;100.00
25080;BME280;13071;48.868;9.996;2023-04-16T06:19:41;96470.81;;;7.03;100.00
25080;BME280;13071;48.868;9.996;2023-04-16T06:22:08;96465.25;;;6.99;100.00
25080;BME280;13071;48.868;9.996;2023-04-16T06:24:35;96470.91;;;6.89;100.00
25080;BME280;13071;48.868;9.996;2023-04-16T06:27:02;96468.63;;;7.05;100.00
25080;BME280;13071;48.868;9.996;2023-04-16T06:29:29;96474.53;;;7.15;100.00
25080;BME280;13071;48.868;9.996;2023-04-16T06:31:56;96473.38;;;7.08;100.00
25080;BME280;13071;48.868;9.996;2023-04-16T06:34:23;96472.13;;;7.14;100.00
25080;BME280;13071;48.868;9.996;2023-04-16T06:36:49;96479.94;;;7.24;100.00
25080;BME280;13071;48.868;9.996;2023-04-16T06:39:16;96476.75;;;7.30;100.00
25080;BME280;13071;48.868;9.996;2023-04-16T06:41:46;96478.16;;;7.19;100.00
25080;BME280;13071;48.868;9.996;2023-04-16T06:44:12;96482.13;;;7.22;100.00
25080;BME280;13071;48.868;9.996;2023-04-16T06:46:40;96481.53;;;7.25;100.00
25080;BME280;13071;48.868;9.996;2023-04-16T06:49:07;96478.97;;;7.20;100.00
25080;BME280;13071;48.868;9.996;2023-04-16T06:51:33;96479.13;;;7.23;100.00
25080;BME280;13071;48.868;9.996;2023-04-16T06:54:00;96479.59;;;7.25;100.00
25080;BME280;13071;48.868;9.996;2023-04-16T06:56:27;96482.22;;;7.48;100.00
25080;BME280;13071;48.868;9.996;2023-04-16T06:58:53;96480.75;;;7.33;100.00
25080;BME280;13071;48.868;9.996;2023-04-16T07:01:21;96482.16;;;7.30;100.00
25080;BME280;13071;48.868;9.996;2023-04-16T07:03:49;96486.91;;;7.33;100.00
25080;BME280;13071;48.868;9.996;2023-04-16T07:06:16;96488.97;;;7.28;100.00
25080;BME280;13071;48.868;9.996;2023-04-16T07:08:42;96486.28;;;7.36;100.00
25080;BME280;13071;48.868;9.996;2023-04-16T07:11:09;96492.00;;;7.35;100.00
25080;BME280;13071;48.868;9.996;2023-04-16T07:13:35;96487.72;;;7.43;100.00
25080;BME280;13071;48.868;9.996;2023-04-16T07:16:02;96484.88;;;7.39;100.00
25080;BME280;13071;48.868;9.996;2023-04-16T07:18:28;96488.38;;;7.40;100.00
25080;BME280;13071;48.868;9.996;2023-04-16T07:20:56;96488.84;;;7.50;100.00
25080;BME280;13071;48.868;9.996;2023-04-16T07:23:23;96488.22;;;7.45;100.00
25080;BME280;13071;48.868;9.996;2023-04-16T07:25:49;96481.25;;;7.44;100.00
25080;BME280;13071;48.868;9.996;2023-04-16T07:28:16;96489.34;;;7.61;100.00
25080;BME280;13071;48.868;9.996;2023-04-16T07:30:43;96492.69;;;7.49;100.00
25080;BME280;13071;48.868;9.996;2023-04-16T07:33:09;96498.94;;;7.36;100.00
25080;BME280;13071;48.868;9.996;2023-04-16T07:35:36;96491.22;;;7.34;100.00
25080;BME280;13071;48.868;9.996;2023-04-16T07:38:04;96504.81;;;7.29;100.00
25080;BME280;13071;48.868;9.996;2023-04-16T07:40:31;96507.50;;;7.29;100.00
25080;BME280;13071;48.868;9.996;2023-04-16T07:42:58;96501.34;;;7.37;100.00
25080;BME280;13071;48.868;9.996;2023-04-16T07:45:25;96499.13;;;7.40;100.00
25080;BME280;13071;48.868;9.996;2023-04-16T07:47:51;96503.25;;;7.46;100.00
25080;BME280;13071;48.868;9.996;2023-04-16T07:50:18;96502.31;;;7.50;100.00
25080;BME280;13071;48.868;9.996;2023-04-16T07:52:45;96518.09;;;7.74;100.00
25080;BME280;13071;48.868;9.996;2023-04-16T07:55:13;96515.53;;;7.69;100.00
25080;BME280;13071;48.868;9.996;2023-04-16T07:57:40;96522.63;;;7.56;100.00
25080;BME280;13071;48.868;9.996;2023-04-16T08:00:07;96523.13;;;7.75;100.00
25080;BME280;13071;48.868;9.996;2023-04-16T08:02:34;96524.88;;;7.63;100.00
25080;BME280;13071;48.868;9.996;2023-04-16T08:05:01;96528.63;;;7.45;100.00
25080;BME280;13071;48.868;9.996;2023-04-16T08:07:27;96532.13;;;7.54;100.00
25080;BME280;13071;48.868;9.996;2023-04-16T08:09:54;96532.16;;;7.62;100.00
25080;BME280;13071;48.868;9.996;2023-04-16T08:12:22;96532.03;;;7.85;100.00
25080;BME280;13071;48.868;9.996;2023-04-16T08:14:48;96528.38;;;7.72;100.00
25080;BME280;13071;48.868;9.996;2023-04-16T08:17:15;96531.22;;;7.75;100.00
25080;BME280;13071;48.868;9.996;2023-04-16T08:19:43;96539.50;;;7.88;100.00
25080;BME280;13071;48.868;9.996;2023-04-16T08:22:10;96544.53;;;7.80;100.00
25080;BME280;13071;48.868;9.996;2023-04-16T08:24:37;96534.13;;;8.05;100.00
25080;BME280;13071;48.868;9.996;2023-04-16T08:27:03;96548.66;;;7.78;100.00
25080;BME280;13071;48.868;9.996;2023-04-16T08:29:31;96545.91;;;7.61;100.00
25080;BME280;13071;48.868;9.996;2023-04-16T08:31:58;96548.19;;;7.85;100.00
25080;BME280;13071;48.868;9.996;2023-04-16T08:34:25;96550.94;;;7.93;100.00
25080;BME280;13071;48.868;9.996;2023-04-16T08:36:51;96544.50;;;8.37;100.00
25080;BME280;13071;48.868;9.996;2023-04-16T08:39:18;96555.81;;;7.82;100.00
25080;BME280;13071;48.868;9.996;2023-04-16T08:41:45;96555.97;;;7.86;100.00
25080;BME280;13071;48.868;9.996;2023-04-16T08:44:18;96561.41;;;8.29;100.00
25080;BME280;13071;48.868;9.996;2023-04-16T08:46:47;96556.91;;;7.81;100.00
25080;BME280;13071;48.868;9.996;2023-04-16T08:49:15;96557.56;;;7.96;100.00
25080;BME280;13071;48.868;9.996;2023-04-16T08:51:47;96561.38;;;7.95;100.00
25080;BME280;13071;48.868;9.996;2023-04-16T08:54:23;96558.34;;;7.88;100.00
25080;BME280;13071;48.868;9.996;2023-04-16T08:56:52;96566.16;;;7.98;100.00
25080;BME280;13071;48.868;9.996;2023-04-16T08:59:19;96570.91;;;8.01;100.00
25080;BME280;13071;48.868;9.996;2023-04-16T09:01:48;96563.25;;;7.77;100.00
25080;BME280;13071;48.868;9.996;2023-04-16T09:04:18;96576.88;;;7.80;100.00
25080;BME280;13071;48.868;9.996;2023-04-16T09:06:47;96575.44;;;7.74;100.00
25080;BME280;13071;48.868;9.996;2023-04-16T09:09:15;96573.06;;;7.73;100.00
25080;BME280;13071;48.868;9.996;2023-04-16T09:11:42;96581.97;;;7.82;100.00
25080;BME280;13071;48.868;9.996;2023-04-16T09:14:10;96582.44;;;7.84;100.00
25080;BME280;13071;48.868;9.996;2023-04-16T09:16:38;96583.56;;;7.83;100.00
25080;BME280;13071;48.868;9.996;2023-04-16T09:19:06;96589.50;;;7.63;100.00
25080;BME280;13071;48.868;9.996;2023-04-16T09:21:33;96593.00;;;7.72;100.00
25080;BME280;13071;48.868;9.996;2023-04-16T09:24:00;96588.88;;;7.66;100.00
25080;BME280;13071;48.868;9.996;2023-04-16T09:26:27;96602.56;;;7.78;100.00
25080;BME280;13071;48.868;9.996;2023-04-16T09:28:53;96595.63;;;7.94;100.00
25080;BME280;13071;48.868;9.996;2023-04-16T09:31:20;96600.66;;;7.78;100.00
25080;BME280;13071;48.868;9.996;2023-04-16T09:34:00;96594.31;;;7.74;100.00
25080;BME280;13071;48.868;9.996;2023-04-16T09:36:28;96601.06;;;8.11;100.00
25080;BME280;13071;48.868;9.996;2023-04-16T09:38:55;96601.53;;;8.13;100.00
25080;BME280;13071;48.868;9.996;2023-04-16T09:41:24;96598.91;;;7.82;100.00
25080;BME280;13071;48.868;9.996;2023-04-16T09:43:56;96597.44;;;7.68;100.00
25080;BME280;13071;48.868;9.996;2023-04-16T09:46:24;96599.50;;;7.71;100.00
25080;BME280;13071;48.868;9.996;2023-04-16T09:48:50;96604.59;;;7.72;100.00
25080;BME280;13071;48.868;9.996;2023-04-16T09:51:17;96606.47;;;7.63;100.00
25080;BME280;13071;48.868;9.996;2023-04-16T09:53:45;96611.81;;;7.55;100.00
25080;BME280;13071;48.868;9.996;2023-04-16T09:56:12;96611.66;;;7.60;100.00
25080;BME280;13071;48.868;9.996;2023-04-16T09:58:38;96618.44;;;7.49;100.00
25080;BME280;13071;48.868;9.996;2023-04-16T10:01:07;96624.13;;;7.47;100.00
25080;BME280;13071;48.868;9.996;2023-04-16T10:03:35;96613.88;;;7.58;100.00
25080;BME280;13071;48.868;9.996;2023-04-16T10:06:07;96616.50;;;7.80;100.00
25080;BME280;13071;48.868;9.996;2023-04-16T10:08:35;96624.53;;;7.63;100.00
25080;BME280;13071;48.868;9.996;2023-04-16T10:11:03;96622.75;;;8.06;100.00
25080;BME280;13071;48.868;9.996;2023-04-16T10:13:31;96629.88;;;8.02;100.00
25080;BME280;13071;48.868;9.996;2023-04-16T10:15:57;96626.88;;;8.04;100.00
25080;BME280;13071;48.868;9.996;2023-04-16T10:18:24;96622.88;;;7.93;100.00
25080;BME280;13071;48.868;9.996;2023-04-16T10:20:51;96629.09;;;8.10;100.00
25080;BME280;13071;48.868;9.996;2023-04-16T10:23:18;96630.19;;;8.01;100.00
25080;BME280;13071;48.868;9.996;2023-04-16T10:25:47;96631.16;;;8.05;100.00
25080;BME280;13071;48.868;9.996;2023-04-16T10:28:16;96636.50;;;7.88;100.00
25080;BME280;13071;48.868;9.996;2023-04-16T10:30:43;96629.44;;;8.17;100.00
25080;BME280;13071;48.868;9.996;2023-04-16T10:33:18;96640.50;;;7.99;100.00
25080;BME280;13071;48.868;9.996;2023-04-16T10:35:45;96639.34;;;8.39;100.00
25080;BME280;13071;48.868;9.996;2023-04-16T10:38:22;96632.75;;;8.06;100.00
25080;BME280;13071;48.868;9.996;2023-04-16T10:40:49;96639.13;;;8.18;100.00
25080;BME280;13071;48.868;9.996;2023-04-16T10:43:17;96644.31;;;8.06;100.00
25080;BME280;13071;48.868;9.996;2023-04-16T10:45:46;96647.06;;;8.23;100.00
25080;BME280;13071;48.868;9.996;2023-04-16T10:48:13;96645.22;;;8.41;100.00
25080;BME280;13071;48.868;9.996;2023-04-16T10:50:41;96641.94;;;8.05;100.00
25080;BME280;13071;48.868;9.996;2023-04-16T10:53:19;96644.19;;;8.11;100.00
25080;BME280;13071;48.868;9.996;2023-04-16T10:55:56;96647.38;;;8.13;100.00
25080;BME280;13071;48.868;9.996;2023-04-16T10:58:27;96645.69;;;7.95;100.00
25080;BME280;13071;48.868;9.996;2023-04-16T11:00:54;96646.22;;;8.06;100.00
25080;BME280;13071;48.868;9.996;2023-04-16T11:03:21;96644.66;;;8.13;100.00
25080;BME280;13071;48.868;9.996;2023-04-16T11:05:47;96650.84;;;8.14;100.00
25080;BME280;13071;48.868;9.996;2023-04-16T11:08:14;96647.03;;;8.15;100.00
25080;BME280;13071;48.868;9.996;2023-04-16T11:10:41;96648.78;;;7.71;100.00
25080;BME280;13071;48.868;9.996;2023-04-16T11:13:07;96655.22;;;7.93;100.00
25080;BME280;13071;48.868;9.996;2023-04-16T11:15:39;96650.69;;;7.71;100.00
25080;BME280;13071;48.868;9.996;2023-04-16T11:18:06;96650.91;;;7.83;100.00
25080;BME280;13071;48.868;9.996;2023-04-16T11:20:33;96655.19;;;7.84;100.00
25080;BME280;13071;48.868;9.996;2023-04-16T11:23:00;96657.41;;;7.82;100.00
25080;BME280;13071;48.868;9.996;2023-04-16T11:25:28;96652.53;;;7.93;100.00
25080;BME280;13071;48.868;9.996;2023-04-16T11:27:56;96655.81;;;7.90;100.00
25080;BME280;13071;48.868;9.996;2023-04-16T11:30:28;96660.50;;;7.67;100.00
25080;BME280;13071;48.868;9.996;2023-04-16T11:32:56;96662.13;;;7.76;100.00
25080;BME280;13071;48.868;9.996;2023-04-16T11:35:23;96667.25;;;7.87;100.00
25080;BME280;13071;48.868;9.996;2023-04-16T11:37:54;96661.66;;;7.74;100.00
25080;BME280;13071;48.868;9.996;2023-04-16T11:40:21;96661.13;;;7.64;100.00
25080;BME280;13071;48.868;9.996;2023-04-16T11:42:48;96669.91;;;7.78;100.00
25080;BME280;13071;48.868;9.996;2023-04-16T11:45:14;96667.06;;;7.83;100.00
25080;BME280;13071;48.868;9.996;2023-04-16T11:47:44;96672.47;;;7.83;100.00
25080;BME280;13071;48.868;9.996;2023-04-16T11:50:22;96671.97;;;7.81;100.00
25080;BME280;13071;48.868;9.996;2023-04-16T11:52:50;96673.72;;;7.86;100.00
25080;BME280;13071;48.868;9.996;2023-04-16T11:55:17;96673.00;;;8.02;100.00
25080;BME280;13071;48.868;9.996;2023-04-16T11:57:45;96671.94;;;8.20;100.00
25080;BME280;13071;48.868;9.996;2023-04-16T12:00:12;96673.31;;;8.01;100.00
25080;BME280;13071;48.868;9.996;2023-04-16T12:02:40;96675.53;;;7.99;100.00
25080;BME280;13071;48.868;9.996;2023-04-16T12:05:27;96671.34;;;8.23;100.00
25080;BME280;13071;48.868;9.996;2023-04-16T12:07:55;96673.66;;;8.08;100.00
25080;BME280;13071;48.868;9.996;2023-04-16T12:10:22;96678.44;;;8.19;100.00
25080;BME280;13071;48.868;9.996;2023-04-16T12:12:49;96675.19;;;8.31;100.00
25080;BME280;13071;48.868;9.996;2023-04-16T12:15:16;96678.50;;;8.28;100.00
25080;BME280;13071;48.868;9.996;2023-04-16T12:17:42;96681.75;;;8.56;100.00
25080;BME280;13071;48.868;9.996;2023-04-16T12:20:10;96678.22;;;8.38;100.00
25080;BME280;13071;48.868;9.996;2023-04-16T12:22:40;96674.88;;;8.33;100.00
25080;BME280;13071;48.868;9.996;2023-04-16T12:25:10;96673.53;;;8.21;100.00
25080;BME280;13071;48.868;9.996;2023-04-16T12:27:42;96681.88;;;8.34;100.00
25080;BME280;13071;48.868;9.996;2023-04-16T12:30:10;96679.03;;;8.47;100.00
25080;BME280;13071;48.868;9.996;2023-04-16T12:32:37;96679.19;;;8.03;100.00
25080;BME280;13071;48.868;9.996;2023-04-16T12:35:04;96676.66;;;8.46;100.00
25080;BME280;13071;48.868;9.996;2023-04-16T12:37:30;96673.28;;;8.32;100.00
25080;BME280;13071;48.868;9.996;2023-04-16T12:39:58;96678.91;;;8.13;100.00
25080;BME280;13071;48.868;9.996;2023-04-16T12:42:25;96685.06;;;8.05;100.00
25080;BME280;13071;48.868;9.996;2023-04-16T12:44:51;96677.09;;;8.31;100.00
25080;BME280;13071;48.868;9.996;2023-04-16T12:47:18;96680.47;;;8.62;100.00
25080;BME280;13071;48.868;9.996;2023-04-16T12:49:45;96683.66;;;8.07;100.00
25080;BME280;13071;48.868;9.996;2023-04-16T12:52:11;96679.06;;;8.08;100.00
25080;BME280;13071;48.868;9.996;2023-04-16T12:54:38;96685.41;;;8.12;100.00
25080;BME280;13071;48.868;9.996;2023-04-16T12:57:06;96679.47;;;8.32;100.00
25080;BME280;13071;48.868;9.996;2023-04-16T12:59:33;96683.22;;;8.14;100.00